Terminal Aerodrome Forecast
Issued by NWS Topeka, KS

Home | Current Version | Previous Version | Graphics & Text | Print | Product List | Glossary On
Versions: 1 2 3 4 5 6 7 8 9 10 11 12 13 14 15 16 17 18 19 20 21
726
FTUS43 KTOP 241129
TAFTOP
TAF
KTOP 241129Z 2412/2512 35007KT P6SM FEW150
     FM242300 34006KT P6SM VCSH SCT050 OVC070
     FM250900 34005KT P6SM -RA SCT020 OVC035=

USA.gov is the U.S. government's official web portal to all federal, state and local government web resources and services.